createdAt,value
2024-01-10T00:00:39.490Z,1024.69
2024-01-10T00:02:25.021Z,1024.69
2024-01-10T00:04:24.982Z,1024.70
2024-01-10T00:06:25.020Z,1024.71
2024-01-10T00:08:29.827Z,1024.69
2024-01-10T00:10:27.812Z,1024.68
2024-01-10T00:12:25.085Z,1024.68
2024-01-10T00:14:25.019Z,1024.68
2024-01-10T00:16:24.914Z,1024.68
2024-01-10T00:18:25.011Z,1024.65
2024-01-10T00:20:25.017Z,1024.68
2024-01-10T00:22:24.978Z,1024.59
2024-01-10T00:24:25.452Z,1024.59
2024-01-10T00:26:25.089Z,1024.59
2024-01-10T00:28:24.943Z,1024.56
2024-01-10T00:30:24.923Z,1024.57
2024-01-10T00:32:25.048Z,1024.58
2024-01-10T00:34:25.086Z,1024.54
2024-01-10T00:36:24.912Z,1024.54
2024-01-10T00:38:25.026Z,1024.51
2024-01-10T00:40:25.209Z,1024.55
2024-01-10T00:42:24.988Z,1024.55
2024-01-10T00:44:25.981Z,1024.57
2024-01-10T00:46:25.045Z,1024.57
2024-01-10T00:50:25.108Z,1024.50
2024-01-10T00:54:25.242Z,1024.54
2024-01-10T00:56:25.172Z,1024.50
2024-01-10T00:58:25.018Z,1024.49
2024-01-10T01:00:24.991Z,1024.49
2024-01-10T01:06:25.218Z,1024.48
2024-01-10T01:10:24.956Z,1024.52
2024-01-10T01:14:41.805Z,1024.57
2024-01-10T01:16:40.847Z,1024.57
2024-01-10T01:18:42.094Z,1024.61
2024-01-10T01:20:40.826Z,1024.63
2024-01-10T01:22:40.922Z,1024.66
2024-01-10T01:24:40.888Z,1024.69
2024-01-10T01:26:41.527Z,1024.69
2024-01-10T01:28:40.873Z,1024.73
2024-01-10T01:30:40.911Z,1024.72
2024-01-10T01:32:40.889Z,1024.69
2024-01-10T01:34:41.071Z,1024.65
2024-01-10T01:36:40.854Z,1024.65
2024-01-10T01:38:40.838Z,1024.71
2024-01-10T01:40:40.882Z,1024.67
2024-01-10T01:42:40.910Z,1024.68
2024-01-10T01:44:40.869Z,1024.68
2024-01-10T01:46:41.393Z,1024.68
2024-01-10T01:48:41.046Z,1024.65
2024-01-10T01:50:41.498Z,1024.62
2024-01-10T01:52:40.919Z,1024.62
2024-01-10T01:54:40.842Z,1024.62
2024-01-10T01:56:40.825Z,1024.59
2024-01-10T01:58:41.025Z,1024.59
2024-01-10T02:00:40.937Z,1024.59
2024-01-10T02:02:41.030Z,1024.64
2024-01-10T02:04:40.932Z,1024.64
2024-01-10T02:06:43.234Z,1024.64
2024-01-10T02:08:40.881Z,1024.60
2024-01-10T02:10:41.064Z,1024.61
2024-01-10T02:12:41.790Z,1024.62
2024-01-10T02:14:42.864Z,1024.62
2024-01-10T02:16:40.898Z,1024.61
2024-01-10T02:18:41.123Z,1024.58
2024-01-10T02:20:40.902Z,1024.62
2024-01-10T02:22:41.029Z,1024.62
2024-01-10T02:24:43.651Z,1024.62
2024-01-10T02:26:45.750Z,1024.62
2024-01-10T02:28:43.797Z,1024.56
2024-01-10T02:30:40.948Z,1024.54
2024-01-10T02:32:41.067Z,1024.54
2024-01-10T02:34:41.673Z,1024.54
2024-01-10T02:36:40.860Z,1024.52
2024-01-10T02:38:40.854Z,1024.49
2024-01-10T02:40:40.957Z,1024.48
2024-01-10T02:42:43.542Z,1024.48
2024-01-10T02:44:41.551Z,1024.43
2024-01-10T02:47:41.007Z,1024.39
2024-01-10T02:49:41.974Z,1024.41
2024-01-10T02:51:43.706Z,1024.40
2024-01-10T02:53:40.862Z,1024.38
2024-01-10T02:55:40.918Z,1024.38
2024-01-10T02:57:40.865Z,1024.37
2024-01-10T02:59:41.484Z,1024.33
2024-01-10T03:01:42.672Z,1024.34
2024-01-10T03:03:44.883Z,1024.34
2024-01-10T03:05:43.930Z,1024.34
2024-01-10T03:07:40.926Z,1024.34
2024-01-10T03:09:41.861Z,1024.33
2024-01-10T03:11:41.014Z,1024.26
2024-01-10T03:13:40.932Z,1024.25
2024-01-10T03:15:40.945Z,1024.25
2024-01-10T03:17:43.737Z,1024.25
2024-01-10T03:19:42.166Z,1024.23
2024-01-10T03:21:43.952Z,1024.25
2024-01-10T03:23:49.579Z,1024.25
2024-01-10T03:25:40.926Z,1024.21
2024-01-10T03:27:40.897Z,1024.22
2024-01-10T03:29:40.912Z,1024.28
2024-01-10T03:31:40.909Z,1024.26
2024-01-10T03:33:41.073Z,1024.26
2024-01-10T03:35:40.894Z,1024.24
2024-01-10T03:37:41.820Z,1024.24
2024-01-10T03:39:40.898Z,1024.27
2024-01-10T03:41:41.002Z,1024.27
2024-01-10T03:43:40.949Z,1024.27
2024-01-10T03:45:40.966Z,1024.27
2024-01-10T03:47:40.943Z,1024.27
2024-01-10T03:49:40.933Z,1024.24
2024-01-10T03:51:41.058Z,1024.24
2024-01-10T03:53:40.896Z,1024.27
2024-01-10T03:55:40.936Z,1024.22
2024-01-10T03:57:45.247Z,1024.20
2024-01-10T03:59:40.927Z,1024.20
2024-01-10T04:01:40.991Z,1024.20
2024-01-10T04:03:41.210Z,1024.14
2024-01-10T04:05:40.941Z,1024.17
2024-01-10T04:07:40.972Z,1024.20
2024-01-10T04:09:41.054Z,1024.16
2024-01-10T04:11:40.948Z,1024.16
2024-01-10T04:13:41.041Z,1024.14
2024-01-10T04:15:41.067Z,1024.12
2024-01-10T04:17:41.101Z,1024.17
2024-01-10T04:19:41.049Z,1024.17
2024-01-10T04:21:40.966Z,1024.19
2024-01-10T04:23:41.297Z,1024.20
2024-01-10T04:25:41.630Z,1024.25
2024-01-10T04:27:40.930Z,1024.25
2024-01-10T04:29:40.978Z,1024.25
2024-01-10T04:31:40.954Z,1024.16
2024-01-10T04:33:41.164Z,1024.14
2024-01-10T04:35:41.045Z,1024.14
2024-01-10T04:37:41.066Z,1024.13
2024-01-10T04:39:42.755Z,1024.13
2024-01-10T04:41:41.023Z,1024.14
2024-01-10T04:43:40.928Z,1024.10
2024-01-10T04:45:41.042Z,1024.10
2024-01-10T04:47:44.198Z,1024.10
2024-01-10T04:49:42.604Z,1024.14
2024-01-10T04:51:42.042Z,1024.17
2024-01-10T04:53:41.158Z,1024.18
2024-01-10T04:55:48.327Z,1024.23
2024-01-10T04:57:40.953Z,1024.23
2024-01-10T04:59:46.758Z,1024.24
2024-01-10T05:01:41.086Z,1024.25
2024-01-10T05:03:40.994Z,1024.29
2024-01-10T05:05:42.472Z,1024.26
2024-01-10T05:07:41.045Z,1024.26
2024-01-10T05:09:40.940Z,1024.26
2024-01-10T05:11:42.326Z,1024.23
2024-01-10T05:13:43.648Z,1024.27
2024-01-10T05:15:40.937Z,1024.27
2024-01-10T05:17:41.192Z,1024.27
2024-01-10T05:19:43.745Z,1024.26
2024-01-10T05:21:40.914Z,1024.27
2024-01-10T05:23:41.956Z,1024.29
2024-01-10T05:25:40.982Z,1024.29
2024-01-10T05:27:45.853Z,1024.25
2024-01-10T05:29:44.774Z,1024.30
2024-01-10T05:31:41.096Z,1024.24
2024-01-10T05:33:41.074Z,1024.28
2024-01-10T05:35:40.932Z,1024.28
2024-01-10T05:37:41.021Z,1024.29
2024-01-10T05:39:40.902Z,1024.33
2024-01-10T05:41:42.104Z,1024.27
2024-01-10T05:43:41.188Z,1024.28
2024-01-10T05:45:41.217Z,1024.28
2024-01-10T05:47:41.197Z,1024.28
2024-01-10T05:49:46.837Z,1024.28
2024-01-10T05:51:42.356Z,1024.27
2024-01-10T05:53:41.859Z,1024.27
2024-01-10T05:55:41.099Z,1024.26
2024-01-10T05:57:41.028Z,1024.29
2024-01-10T05:59:40.986Z,1024.30
2024-01-10T06:01:41.036Z,1024.33
2024-01-10T06:03:41.015Z,1024.33
2024-01-10T06:05:40.990Z,1024.26
2024-01-10T06:07:41.356Z,1024.29
2024-01-10T06:09:40.926Z,1024.33
2024-01-10T06:11:42.271Z,1024.34
2024-01-10T06:13:49.469Z,1024.34
2024-01-10T06:16:41.195Z,1024.31
2024-01-10T06:18:41.061Z,1024.31
2024-01-10T06:20:40.953Z,1024.33
2024-01-10T06:22:41.081Z,1024.40
2024-01-10T06:23:45.876Z,1024.40
2024-01-10T06:26:41.204Z,1024.42
2024-01-10T06:28:41.039Z,1024.40
2024-01-10T06:30:41.839Z,1024.40
2024-01-10T06:32:41.030Z,1024.39
2024-01-10T06:34:44.585Z,1024.36
2024-01-10T06:36:41.071Z,1024.36
2024-01-10T06:38:41.137Z,1024.37
2024-01-10T06:40:41.248Z,1024.37
2024-01-10T06:42:42.656Z,1024.44
2024-01-10T06:44:40.973Z,1024.50
2024-01-10T06:46:41.139Z,1024.50
2024-01-10T06:48:42.998Z,1024.59
2024-01-10T06:50:41.012Z,1024.57
2024-01-10T06:52:41.045Z,1024.59
2024-01-10T06:54:41.584Z,1024.59
2024-01-10T06:56:41.070Z,1024.66
2024-01-10T06:58:41.059Z,1024.64
2024-01-10T07:00:41.140Z,1024.68
2024-01-10T07:02:41.055Z,1024.71
2024-01-10T07:04:41.026Z,1024.71
2024-01-10T07:06:40.982Z,1024.80
2024-01-10T07:08:43.740Z,1024.81
2024-01-10T07:10:41.057Z,1024.81
2024-01-10T07:12:40.974Z,1024.71
2024-01-10T07:14:40.971Z,1024.71
2024-01-10T07:16:41.131Z,1024.71
2024-01-10T07:18:46.276Z,1024.68
2024-01-10T07:20:41.077Z,1024.65
2024-01-10T07:22:41.052Z,1024.65
2024-01-10T07:24:41.023Z,1024.75
2024-01-10T07:26:40.980Z,1024.72
2024-01-10T07:28:41.153Z,1024.78
2024-01-10T07:30:41.157Z,1024.80
2024-01-10T07:32:41.120Z,1024.80
2024-01-10T07:34:49.121Z,1024.77
2024-01-10T07:38:41.072Z,1024.73
2024-01-10T07:42:41.019Z,1024.79
2024-01-10T07:44:41.638Z,1024.80
2024-01-10T07:48:41.106Z,1024.78
2024-01-10T07:52:41.163Z,1024.78
2024-01-10T07:59:08.750Z,1024.86
2024-01-10T08:00:14.186Z,1024.86
2024-01-10T08:03:08.582Z,1024.95
2024-01-10T08:05:14.717Z,1025.01
2024-01-10T08:06:17.912Z,1025.01
2024-01-10T08:09:08.642Z,1025.14
2024-01-10T08:11:11.366Z,1025.14
2024-01-10T08:12:16.245Z,1025.20
2024-01-10T08:15:20.275Z,1025.24
2024-01-10T08:17:08.800Z,1025.29
2024-01-10T08:19:08.701Z,1025.27
2024-01-10T08:21:11.066Z,1025.27
2024-01-10T08:23:08.607Z,1025.26
2024-01-10T08:25:11.462Z,1025.27
2024-01-10T08:27:10.306Z,1025.28
2024-01-10T08:29:08.608Z,1025.28
2024-01-10T08:31:08.769Z,1025.31
2024-01-10T08:33:08.635Z,1025.31
2024-01-10T08:35:11.483Z,1025.30
2024-01-10T08:37:08.596Z,1025.35
2024-01-10T08:39:08.613Z,1025.35
2024-01-10T08:41:11.156Z,1025.35
2024-01-10T08:43:08.477Z,1025.33
2024-01-10T08:45:11.550Z,1025.33
2024-01-10T08:47:08.932Z,1025.37
2024-01-10T08:49:08.869Z,1025.37
2024-01-10T08:51:08.593Z,1025.43
2024-01-10T08:53:08.722Z,1025.45
2024-01-10T08:55:12.141Z,1025.48
2024-01-10T08:57:11.784Z,1025.48
2024-01-10T08:59:08.684Z,1025.45
2024-01-10T09:01:08.620Z,1025.43
2024-01-10T09:03:11.624Z,1025.48
2024-01-10T09:05:08.500Z,1025.44
2024-01-10T09:07:12.665Z,1025.44
2024-01-10T09:09:11.143Z,1025.43
2024-01-10T09:11:08.652Z,1025.43
2024-01-10T09:13:08.532Z,1025.43
2024-01-10T09:15:11.625Z,1025.55
2024-01-10T09:17:08.657Z,1025.55
2024-01-10T09:19:11.408Z,1025.59
2024-01-10T09:21:17.468Z,1025.59
2024-01-10T09:23:08.581Z,1025.64
2024-01-10T09:25:12.466Z,1025.64
2024-01-10T09:27:08.575Z,1025.64
2024-01-10T09:29:09.761Z,1025.65
2024-01-10T09:31:08.610Z,1025.67
2024-01-10T09:33:09.174Z,1025.69
2024-01-10T09:35:13.538Z,1025.69
2024-01-10T09:37:08.641Z,1025.67
2024-01-10T09:39:08.540Z,1025.64
2024-01-10T09:41:11.254Z,1025.67
2024-01-10T09:43:11.344Z,1025.69
2024-01-10T09:45:08.512Z,1025.69
2024-01-10T09:47:14.489Z,1025.69
2024-01-10T09:49:08.932Z,1025.72
2024-01-10T09:51:09.988Z,1025.74
2024-01-10T09:53:08.628Z,1025.74
2024-01-10T09:55:08.585Z,1025.74
2024-01-10T09:57:08.533Z,1025.83
2024-01-10T09:59:08.578Z,1025.82
2024-01-10T10:01:08.679Z,1025.81
2024-01-10T10:03:08.590Z,1025.81
2024-01-10T10:05:08.643Z,1025.82
2024-01-10T10:07:08.767Z,1025.74
2024-01-10T10:09:11.027Z,1025.70
2024-01-10T10:11:08.616Z,1025.68
2024-01-10T10:13:13.558Z,1025.68
2024-01-10T10:15:08.548Z,1025.69
2024-01-10T10:17:08.599Z,1025.68
2024-01-10T10:19:11.362Z,1025.70
2024-01-10T10:21:08.516Z,1025.70
2024-01-10T10:23:16.124Z,1025.70
2024-01-10T10:25:13.456Z,1025.67
2024-01-10T10:27:11.114Z,1025.67
2024-01-10T10:29:08.684Z,1025.65
2024-01-10T10:31:08.567Z,1025.65
2024-01-10T10:33:08.622Z,1025.67
2024-01-10T10:35:14.990Z,1025.67
2024-01-10T10:37:08.561Z,1025.65
2024-01-10T10:39:10.575Z,1025.63
2024-01-10T10:41:11.110Z,1025.63
2024-01-10T10:43:08.642Z,1025.58
2024-01-10T10:45:14.186Z,1025.59
2024-01-10T10:47:13.136Z,1025.59
2024-01-10T10:49:08.793Z,1025.58
2024-01-10T10:51:11.482Z,1025.58
2024-01-10T10:53:08.623Z,1025.52
2024-01-10T10:55:08.779Z,1025.54
2024-01-10T10:57:09.785Z,1025.57
2024-01-10T10:59:11.555Z,1025.57
2024-01-10T11:01:11.618Z,1025.59
2024-01-10T11:03:08.638Z,1025.57
2024-01-10T11:05:08.694Z,1025.57
2024-01-10T11:07:11.601Z,1025.57
2024-01-10T11:09:10.288Z,1025.57
2024-01-10T11:11:11.474Z,1025.57
2024-01-10T11:13:08.673Z,1025.57
2024-01-10T11:15:14.290Z,1025.57
2024-01-10T11:17:11.312Z,1025.55
2024-01-10T11:19:11.394Z,1025.55
2024-01-10T11:21:14.487Z,1025.51
2024-01-10T11:23:08.721Z,1025.48
2024-01-10T11:25:08.573Z,1025.48
2024-01-10T11:27:08.708Z,1025.48
2024-01-10T11:30:08.569Z,1025.54
2024-01-10T11:32:08.714Z,1025.54
2024-01-10T11:34:08.892Z,1025.46
2024-01-10T11:35:14.493Z,1025.42
2024-01-10T11:38:09.740Z,1025.39
2024-01-10T11:39:11.653Z,1025.39
2024-01-10T11:42:11.450Z,1025.40
2024-01-10T11:44:14.361Z,1025.41
2024-01-10T11:45:19.806Z,1025.43
2024-01-10T11:48:09.516Z,1025.45
2024-01-10T11:50:08.653Z,1025.47
2024-01-10T11:52:08.641Z,1025.47
2024-01-10T11:54:08.780Z,1025.43
2024-01-10T11:56:18.506Z,1025.43
2024-01-10T11:58:10.050Z,1025.44
2024-01-10T12:00:14.751Z,1025.44
2024-01-10T12:02:11.618Z,1025.49
2024-01-10T12:04:17.919Z,1025.36
2024-01-10T12:06:14.501Z,1025.42
2024-01-10T12:08:13.605Z,1025.37
2024-01-10T12:10:09.002Z,1025.37
2024-01-10T12:12:08.788Z,1025.30
2024-01-10T12:14:08.738Z,1025.30
2024-01-10T12:16:11.486Z,1025.27
2024-01-10T12:18:08.627Z,1025.23
2024-01-10T12:20:11.647Z,1025.23
2024-01-10T12:22:11.769Z,1025.22
2024-01-10T12:24:11.353Z,1025.17
2024-01-10T12:26:08.749Z,1025.23
2024-01-10T12:28:11.513Z,1025.23
2024-01-10T12:30:11.407Z,1025.22
2024-01-10T12:32:11.736Z,1025.21
2024-01-10T12:34:11.372Z,1025.16
2024-01-10T12:36:08.857Z,1025.16
2024-01-10T12:38:09.386Z,1025.16
2024-01-10T12:40:11.775Z,1025.12
2024-01-10T12:42:11.614Z,1025.08
2024-01-10T12:44:08.899Z,1025.03
2024-01-10T12:46:11.666Z,1025.01
2024-01-10T12:48:08.830Z,1025.01
2024-01-10T12:50:11.713Z,1024.99
2024-01-10T12:52:11.948Z,1025.01
2024-01-10T12:54:08.668Z,1025.00
2024-01-10T12:56:11.594Z,1025.00
2024-01-10T12:58:12.162Z,1025.10
2024-01-10T13:00:11.462Z,1025.09
2024-01-10T13:02:11.459Z,1025.12
2024-01-10T13:04:09.478Z,1025.12
2024-01-10T13:06:12.074Z,1025.12
2024-01-10T13:08:08.783Z,1025.14
2024-01-10T13:10:08.594Z,1025.11
2024-01-10T13:12:08.873Z,1025.13
2024-01-10T13:14:08.720Z,1025.19
2024-01-10T13:16:11.325Z,1025.19
2024-01-10T13:18:12.955Z,1025.19
2024-01-10T13:20:08.716Z,1025.17
2024-01-10T13:22:09.270Z,1025.30
2024-01-10T13:24:08.677Z,1025.28
2024-01-10T13:26:13.895Z,1025.28
2024-01-10T13:28:08.933Z,1025.30
2024-01-10T13:30:19.558Z,1025.27
2024-01-10T13:32:11.403Z,1025.25
2024-01-10T13:34:08.772Z,1025.25
2024-01-10T13:36:09.026Z,1025.23
2024-01-10T13:38:08.879Z,1025.24
2024-01-10T13:40:11.668Z,1025.32
2024-01-10T13:42:13.951Z,1025.35
2024-01-10T13:44:08.745Z,1025.35
2024-01-10T13:46:09.867Z,1025.36
2024-01-10T13:48:11.333Z,1025.38
2024-01-10T13:50:11.627Z,1025.39
2024-01-10T13:52:08.926Z,1025.37
2024-01-10T13:54:08.712Z,1025.37
2024-01-10T13:56:08.778Z,1025.34
2024-01-10T13:58:11.917Z,1025.34
2024-01-10T14:00:11.273Z,1025.41
2024-01-10T14:02:08.790Z,1025.41
2024-01-10T14:04:08.738Z,1025.36
2024-01-10T14:06:08.831Z,1025.38
2024-01-10T14:08:14.363Z,1025.34
2024-01-10T14:10:18.347Z,1025.36
2024-01-10T14:12:08.712Z,1025.36
2024-01-10T14:14:26.230Z,1025.35
2024-01-10T14:18:08.761Z,1025.32
2024-01-10T14:26:50.329Z,1025.32
2024-01-10T14:28:49.969Z,1025.31
2024-01-10T14:30:50.613Z,1025.33
2024-01-10T14:32:50.072Z,1025.38
2024-01-10T14:34:50.209Z,1025.38
2024-01-10T14:36:49.976Z,1025.35
2024-01-10T14:38:50.994Z,1025.35
2024-01-10T14:40:50.009Z,1025.34
2024-01-10T14:42:49.864Z,1025.36
2024-01-10T14:44:49.948Z,1025.36
2024-01-10T14:46:56.607Z,1025.34
2024-01-10T14:48:49.857Z,1025.35
2024-01-10T14:50:49.905Z,1025.35
2024-01-10T14:52:49.932Z,1025.30
2024-01-10T14:54:49.871Z,1025.30
2024-01-10T14:56:49.797Z,1025.31
2024-01-10T14:58:49.875Z,1025.32
2024-01-10T15:00:50.186Z,1025.33
2024-01-10T15:02:49.983Z,1025.33
2024-01-10T15:04:49.893Z,1025.32
2024-01-10T15:06:49.835Z,1025.33
2024-01-10T15:08:49.978Z,1025.28
2024-01-10T15:10:49.901Z,1025.30
2024-01-10T15:12:49.893Z,1025.30
2024-01-10T15:14:49.897Z,1025.35
2024-01-10T15:16:50.030Z,1025.37
2024-01-10T15:18:50.134Z,1025.37
2024-01-10T15:20:49.980Z,1025.35
2024-01-10T15:22:50.543Z,1025.35
2024-01-10T15:24:49.860Z,1025.40
2024-01-10T15:26:49.963Z,1025.43
2024-01-10T15:28:49.875Z,1025.51
2024-01-10T15:30:50.035Z,1025.51
2024-01-10T15:32:49.976Z,1025.51
2024-01-10T15:34:50.037Z,1025.52
2024-01-10T15:36:50.136Z,1025.51
2024-01-10T15:38:49.983Z,1025.51
2024-01-10T15:40:49.912Z,1025.51
2024-01-10T15:42:49.830Z,1025.53
2024-01-10T15:44:49.861Z,1025.52
2024-01-10T15:46:50.476Z,1025.58
2024-01-10T15:48:50.011Z,1025.64
2024-01-10T15:50:49.906Z,1025.64
2024-01-10T15:52:49.899Z,1025.63
2024-01-10T15:54:49.909Z,1025.65
2024-01-10T15:56:49.933Z,1025.60
2024-01-10T15:58:49.916Z,1025.60
2024-01-10T16:00:49.838Z,1025.60
2024-01-10T16:02:49.821Z,1025.58
2024-01-10T16:04:53.226Z,1025.59
2024-01-10T16:06:49.966Z,1025.60
2024-01-10T16:08:50.145Z,1025.60
2024-01-10T16:10:54.397Z,1025.62
2024-01-10T16:12:50.004Z,1025.65
2024-01-10T16:14:53.159Z,1025.67
2024-01-10T16:16:49.908Z,1025.67
2024-01-10T16:18:50.463Z,1025.67
2024-01-10T16:20:49.925Z,1025.68
2024-01-10T16:22:52.374Z,1025.74
2024-01-10T16:24:49.871Z,1025.70
2024-01-10T16:26:49.979Z,1025.73
2024-01-10T16:28:52.874Z,1025.73
2024-01-10T16:30:51.664Z,1025.77
2024-01-10T16:32:49.905Z,1025.76
2024-01-10T16:34:50.000Z,1025.78
2024-01-10T16:36:50.142Z,1025.78
2024-01-10T16:38:50.397Z,1025.81
2024-01-10T16:40:50.129Z,1025.81
2024-01-10T16:42:50.052Z,1025.81
2024-01-10T16:44:50.454Z,1025.84
2024-01-10T16:46:50.174Z,1025.84
2024-01-10T16:48:50.597Z,1025.86
2024-01-10T16:50:50.998Z,1025.90
2024-01-10T16:52:53.812Z,1025.94
2024-01-10T16:54:50.209Z,1025.93
2024-01-10T16:56:50.211Z,1025.93
2024-01-10T16:58:51.598Z,1025.99
2024-01-10T17:00:54.957Z,1025.95
2024-01-10T17:02:50.082Z,1025.98
2024-01-10T17:04:50.393Z,1025.98
2024-01-10T17:06:52.394Z,1025.97
2024-01-10T17:08:50.020Z,1025.96
2024-01-10T17:10:51.669Z,1025.95
2024-01-10T17:12:50.034Z,1025.99
2024-01-10T17:14:49.952Z,1025.99
2024-01-10T17:16:50.196Z,1025.96
2024-01-10T17:18:50.591Z,1025.94
2024-01-10T17:20:52.876Z,1025.94
2024-01-10T17:22:49.959Z,1025.98
2024-01-10T17:24:49.892Z,1025.98
2024-01-10T17:26:52.896Z,1026.00
2024-01-10T17:28:50.088Z,1025.98
2024-01-10T17:30:55.830Z,1025.99
2024-01-10T17:32:50.285Z,1025.99
2024-01-10T17:35:50.614Z,1025.94
2024-01-10T17:37:50.037Z,1025.94
2024-01-10T17:39:49.982Z,1025.94
2024-01-10T17:40:54.997Z,1025.97
2024-01-10T17:43:50.721Z,1025.97
2024-01-10T17:45:54.801Z,1026.00
2024-01-10T17:47:50.248Z,1026.00
2024-01-10T17:49:49.972Z,1026.05
2024-01-10T17:51:49.983Z,1026.06
2024-01-10T17:53:50.198Z,1026.07
2024-01-10T17:55:50.310Z,1026.14
2024-01-10T17:57:56.045Z,1026.14
2024-01-10T17:59:50.754Z,1026.13
2024-01-10T18:01:50.555Z,1026.13
2024-01-10T18:03:55.677Z,1026.22
2024-01-10T18:05:50.302Z,1026.22
2024-01-10T18:07:50.184Z,1026.22
2024-01-10T18:09:50.004Z,1026.22
2024-01-10T18:11:49.912Z,1026.21
2024-01-10T18:13:50.636Z,1026.24
2024-01-10T18:15:49.997Z,1026.24
2024-01-10T18:17:54.372Z,1026.23
2024-01-10T18:19:50.065Z,1026.23
2024-01-10T18:21:50.020Z,1026.24
2024-01-10T18:23:49.948Z,1026.28
2024-01-10T18:25:49.985Z,1026.28
2024-01-10T18:27:50.296Z,1026.27
2024-01-10T18:29:50.196Z,1026.35
2024-01-10T18:31:51.040Z,1026.33
2024-01-10T18:33:50.083Z,1026.33
2024-01-10T18:35:50.041Z,1026.40
2024-01-10T18:37:50.167Z,1026.40
2024-01-10T18:39:49.954Z,1026.42
2024-01-10T18:41:51.411Z,1026.42
2024-01-10T18:43:50.274Z,1026.42
2024-01-10T18:45:50.135Z,1026.42
2024-01-10T18:47:50.318Z,1026.42
2024-01-10T18:49:53.527Z,1026.38
2024-01-10T18:51:50.714Z,1026.44
2024-01-10T18:53:54.828Z,1026.44
2024-01-10T18:55:50.101Z,1026.48
2024-01-10T18:57:50.026Z,1026.49
2024-01-10T18:59:50.187Z,1026.52
2024-01-10T19:01:53.360Z,1026.52
2024-01-10T19:03:50.010Z,1026.49
2024-01-10T19:05:50.121Z,1026.51
2024-01-10T19:07:51.347Z,1026.49
2024-01-10T19:09:50.499Z,1026.51
2024-01-10T19:11:50.132Z,1026.51
2024-01-10T19:13:50.620Z,1026.49
2024-01-10T19:15:50.970Z,1026.42
2024-01-10T19:17:50.207Z,1026.40
2024-01-10T19:19:50.615Z,1026.42
2024-01-10T19:21:50.006Z,1026.42
2024-01-10T19:23:50.108Z,1026.42
2024-01-10T19:25:50.005Z,1026.41
2024-01-10T19:27:50.059Z,1026.41
2024-01-10T19:29:50.051Z,1026.41
2024-01-10T19:31:50.132Z,1026.37
2024-01-10T19:33:55.059Z,1026.37
2024-01-10T19:35:50.111Z,1026.35
2024-01-10T19:37:50.171Z,1026.34
2024-01-10T19:39:51.069Z,1026.34
2024-01-10T19:41:50.008Z,1026.37
2024-01-10T19:43:50.013Z,1026.38
2024-01-10T19:45:51.011Z,1026.39
2024-01-10T19:47:50.103Z,1026.41
2024-01-10T19:49:50.872Z,1026.41
2024-01-10T19:51:49.995Z,1026.44
2024-01-10T19:53:50.357Z,1026.41
2024-01-10T19:55:50.076Z,1026.38
2024-01-10T19:57:52.769Z,1026.44
2024-01-10T19:59:50.361Z,1026.44
2024-01-10T20:01:50.179Z,1026.48
2024-01-10T20:03:50.003Z,1026.48
2024-01-10T20:05:50.082Z,1026.40
2024-01-10T20:07:50.139Z,1026.40
2024-01-10T20:09:50.481Z,1026.34
2024-01-10T20:11:54.985Z,1026.36
2024-01-10T20:13:49.991Z,1026.33
2024-01-10T20:15:52.849Z,1026.31
2024-01-10T20:17:50.304Z,1026.31
2024-01-10T20:19:50.178Z,1026.36
2024-01-10T20:21:50.396Z,1026.35
2024-01-10T20:23:50.200Z,1026.38
2024-01-10T20:25:50.056Z,1026.42
2024-01-10T20:27:51.577Z,1026.42
2024-01-10T20:29:50.138Z,1026.41
2024-01-10T20:31:50.201Z,1026.40
2024-01-10T20:33:50.183Z,1026.32
2024-01-10T20:35:50.235Z,1026.32
2024-01-10T20:37:50.330Z,1026.26
2024-01-10T20:39:50.069Z,1026.30
2024-01-10T20:41:50.064Z,1026.31
2024-01-10T20:43:50.156Z,1026.31
2024-01-10T20:46:05.816Z,1026.31
2024-01-10T20:48:06.650Z,1026.32
2024-01-10T20:50:08.260Z,1026.27
2024-01-10T20:52:05.458Z,1026.29
2024-01-10T20:54:05.484Z,1026.32
2024-01-10T20:56:05.525Z,1026.32
2024-01-10T20:58:05.523Z,1026.33
2024-01-10T21:00:14.494Z,1026.37
2024-01-10T21:02:09.161Z,1026.39
2024-01-10T21:04:05.576Z,1026.39
2024-01-10T21:06:11.519Z,1026.41
2024-01-10T21:08:06.060Z,1026.41
2024-01-10T21:10:05.646Z,1026.44
2024-01-10T21:12:08.437Z,1026.47
2024-01-10T21:14:05.549Z,1026.47
2024-01-10T21:16:11.277Z,1026.47
2024-01-10T21:18:05.674Z,1026.42
2024-01-10T21:20:05.557Z,1026.43
2024-01-10T21:22:07.565Z,1026.40
2024-01-10T21:24:05.540Z,1026.40
2024-01-10T21:26:05.931Z,1026.40
2024-01-10T21:28:05.572Z,1026.32
2024-01-10T21:30:08.493Z,1026.33
2024-01-10T21:32:05.767Z,1026.33
2024-01-10T21:34:05.644Z,1026.31
2024-01-10T21:36:05.966Z,1026.26
2024-01-10T21:38:05.617Z,1026.25
2024-01-10T21:40:05.637Z,1026.27
2024-01-10T21:42:05.511Z,1026.27
2024-01-10T21:44:10.533Z,1026.30
2024-01-10T21:46:08.357Z,1026.34
2024-01-10T21:48:10.586Z,1026.39
2024-01-10T21:50:10.806Z,1026.37
2024-01-10T21:52:08.427Z,1026.37
2024-01-10T21:54:05.693Z,1026.32
2024-01-10T21:56:06.856Z,1026.32
2024-01-10T21:58:05.579Z,1026.28
2024-01-10T22:00:05.882Z,1026.24
2024-01-10T22:02:05.574Z,1026.24
2024-01-10T22:05:06.297Z,1026.24
2024-01-10T22:07:05.608Z,1026.24
2024-01-10T22:09:09.043Z,1026.32
2024-01-10T22:10:17.245Z,1026.32
2024-01-10T22:13:05.685Z,1026.34
2024-01-10T22:15:05.582Z,1026.34
2024-01-10T22:17:05.562Z,1026.31
2024-01-10T22:19:06.709Z,1026.30
2024-01-10T22:20:11.222Z,1026.30
2024-01-10T22:23:08.019Z,1026.27
2024-01-10T22:25:05.650Z,1026.27
2024-01-10T22:27:05.696Z,1026.19
2024-01-10T22:29:05.932Z,1026.19
2024-01-10T22:31:05.599Z,1026.16
2024-01-10T22:33:05.823Z,1026.16
2024-01-10T22:35:08.564Z,1026.13
2024-01-10T22:37:05.740Z,1026.19
2024-01-10T22:39:10.491Z,1026.17
2024-01-10T22:41:08.439Z,1026.17
2024-01-10T22:43:05.546Z,1026.17
2024-01-10T22:45:05.621Z,1026.19
2024-01-10T22:47:05.762Z,1026.19
2024-01-10T22:49:05.577Z,1026.20
2024-01-10T22:51:05.961Z,1026.25
2024-01-10T22:53:05.752Z,1026.25
2024-01-10T22:55:05.581Z,1026.29
2024-01-10T22:57:08.213Z,1026.31
2024-01-10T22:59:05.610Z,1026.31
2024-01-10T23:01:05.683Z,1026.33
2024-01-10T23:03:05.626Z,1026.33
2024-01-10T23:05:05.723Z,1026.32
2024-01-10T23:07:05.572Z,1026.28
2024-01-10T23:09:08.292Z,1026.27
2024-01-10T23:11:08.546Z,1026.27
2024-01-10T23:13:05.748Z,1026.28
2024-01-10T23:15:11.124Z,1026.25
2024-01-10T23:17:08.506Z,1026.22
2024-01-10T23:19:05.608Z,1026.20
2024-01-10T23:21:08.580Z,1026.20
2024-01-10T23:23:05.595Z,1026.28
2024-01-10T23:25:05.602Z,1026.26
2024-01-10T23:27:05.675Z,1026.26
2024-01-10T23:29:05.580Z,1026.19
2024-01-10T23:31:11.182Z,1026.19
2024-01-10T23:33:05.620Z,1026.19
2024-01-10T23:35:08.362Z,1026.22
2024-01-10T23:37:08.307Z,1026.21
2024-01-10T23:39:05.526Z,1026.21
2024-01-10T23:41:05.536Z,1026.14
2024-01-10T23:43:14.790Z,1026.14
2024-01-10T23:45:08.512Z,1026.18
2024-01-10T23:47:05.670Z,1026.18
2024-01-10T23:49:08.593Z,1026.18
2024-01-10T23:51:08.430Z,1026.19
2024-01-10T23:53:13.358Z,1026.16
2024-01-10T23:55:08.064Z,1026.11
2024-01-10T23:57:05.504Z,1026.13
2024-01-10T23:59:07.651Z,1026.13
